createdAt,value
2023-03-28T00:01:40.781Z,0.60
2023-03-28T00:04:17.766Z,0.50
2023-03-28T00:07:13.624Z,0.95
2023-03-28T00:09:47.642Z,0.53
2023-03-28T00:15:02.481Z,0.50
2023-03-28T00:17:41.102Z,0.50
2023-03-28T00:20:14.318Z,0.62
2023-03-28T00:22:44.939Z,0.60
2023-03-28T00:25:16.200Z,0.50
2023-03-28T00:27:58.329Z,0.45
2023-03-28T00:33:12.447Z,0.90
2023-03-28T00:35:57.971Z,0.60
2023-03-28T00:42:02.389Z,0.50
2023-03-28T00:47:53.251Z,0.50
2023-03-28T00:59:50.492Z,0.90
2023-03-28T01:02:57.698Z,0.60
2023-03-28T01:09:01.456Z,0.50
2023-03-28T01:12:05.821Z,0.60
2023-03-28T01:18:44.225Z,0.45
2023-03-28T01:21:29.061Z,0.80
2023-03-28T01:24:14.527Z,0.50
2023-03-28T01:29:57.904Z,0.50
2023-03-28T01:33:09.397Z,0.70
2023-03-28T01:36:33.864Z,0.50
2023-03-28T01:39:03.199Z,1.57
2023-03-28T01:42:03.018Z,0.60
2023-03-28T01:45:20.212Z,0.40
2023-03-28T01:47:55.566Z,0.50
2023-03-28T01:50:55.103Z,0.60
2023-03-28T01:53:43.854Z,0.50
2023-03-28T01:56:47.029Z,0.77
2023-03-28T02:00:28.386Z,0.53
2023-03-28T02:02:45.590Z,1.67
2023-03-28T02:09:07.719Z,1.32
2023-03-28T02:11:42.622Z,0.82
2023-03-28T02:14:38.684Z,0.70
2023-03-28T02:17:46.575Z,0.50
2023-03-28T02:20:51.596Z,2.08
2023-03-28T02:27:14.911Z,0.90
2023-03-28T02:33:41.379Z,1.35
2023-03-28T02:36:31.646Z,0.78
2023-03-28T02:39:13.285Z,0.82
2023-03-28T02:41:51.816Z,1.46
2023-03-28T02:48:38.248Z,0.60
2023-03-28T02:51:41.978Z,0.60
2023-03-28T02:54:52.882Z,0.80
2023-03-28T02:57:46.356Z,1.67
2023-03-28T03:00:19.941Z,0.70
2023-03-28T03:09:20.340Z,0.62
2023-03-28T03:12:30.228Z,1.17
2023-03-28T03:18:15.756Z,1.12
2023-03-28T03:21:28.612Z,0.83
2023-03-28T03:30:19.151Z,0.50
2023-03-28T03:33:07.014Z,0.70
2023-03-28T03:36:16.547Z,0.64
2023-03-28T03:41:54.028Z,0.60
2023-03-28T03:47:24.843Z,0.60
2023-03-28T03:49:59.872Z,0.60
2023-03-28T03:52:30.352Z,0.60
2023-03-28T03:55:00.371Z,0.85
2023-03-28T03:57:32.372Z,1.07
2023-03-28T04:00:03.811Z,0.50
2023-03-28T04:02:47.296Z,0.80
2023-03-28T04:05:18.344Z,0.50
2023-03-28T04:07:48.689Z,0.60
2023-03-28T04:10:46.134Z,0.83
2023-03-28T04:13:02.786Z,0.68
2023-03-28T04:15:32.794Z,0.70
2023-03-28T04:18:06.799Z,0.53
2023-03-28T04:20:51.282Z,0.80
2023-03-28T04:23:23.145Z,1.17
2023-03-28T04:25:55.240Z,0.50
2023-03-28T04:28:58.876Z,0.70
2023-03-28T04:31:30.453Z,0.54
2023-03-28T04:34:01.104Z,0.60
2023-03-28T04:36:32.188Z,0.60
2023-03-28T04:40:09.704Z,0.82
2023-03-28T04:42:48.394Z,1.10
2023-03-28T04:45:36.618Z,0.40
2023-03-28T04:48:27.429Z,1.42
2023-03-28T04:51:03.274Z,0.70
2023-03-28T04:53:33.505Z,0.57
2023-03-28T04:56:05.361Z,0.60
2023-03-28T04:58:35.269Z,0.50
2023-03-28T05:01:06.209Z,0.53
2023-03-28T05:03:57.361Z,0.53
2023-03-28T05:06:33.698Z,0.60
2023-03-28T05:09:43.661Z,1.20
2023-03-28T05:12:55.886Z,0.50
2023-03-28T05:16:06.369Z,0.60
2023-03-28T05:18:47.131Z,0.64
2023-03-28T05:21:17.117Z,0.60
2023-03-28T05:24:06.082Z,0.50
2023-03-28T05:26:37.375Z,0.60
2023-03-28T05:29:20.298Z,0.60
2023-03-28T05:31:59.353Z,0.47
2023-03-28T05:34:32.465Z,0.60
2023-03-28T05:37:06.452Z,0.53
2023-03-28T05:39:40.543Z,0.80
2023-03-28T05:42:12.291Z,2.10
2023-03-28T05:45:00.945Z,0.57
2023-03-28T05:50:31.352Z,0.62
2023-03-28T05:52:50.910Z,0.60
2023-03-28T05:55:28.145Z,1.05
2023-03-28T05:58:03.081Z,0.70
2023-03-28T06:00:42.823Z,0.70
2023-03-28T06:03:36.866Z,0.53
2023-03-28T06:06:12.710Z,0.60
2023-03-28T06:08:47.120Z,0.60
2023-03-28T06:11:21.328Z,0.62
2023-03-28T06:13:54.991Z,0.60
2023-03-28T06:16:30.229Z,1.00
2023-03-28T06:19:17.794Z,0.65
2023-03-28T06:22:05.887Z,1.67
2023-03-28T06:24:41.403Z,0.70
2023-03-28T06:27:33.456Z,0.78
2023-03-28T06:32:47.178Z,0.50
2023-03-28T06:37:50.702Z,0.60
2023-03-28T06:40:22.432Z,0.70
2023-03-28T06:43:02.062Z,0.60
2023-03-28T06:45:48.576Z,0.60
2023-03-28T06:51:56.019Z,0.70
2023-03-28T06:54:36.397Z,0.88
2023-03-28T06:57:34.962Z,0.90
2023-03-28T07:05:49.181Z,1.07
2023-03-28T07:08:26.360Z,0.93
2023-03-28T07:11:11.858Z,0.82
2023-03-28T07:13:44.328Z,0.90
2023-03-28T07:16:24.287Z,0.80
2023-03-28T07:18:57.226Z,0.80
2023-03-28T07:21:50.481Z,1.00
2023-03-28T07:24:48.220Z,0.80
2023-03-28T07:27:48.612Z,0.85
2023-03-28T07:30:26.472Z,1.10
2023-03-28T07:33:07.966Z,0.80
2023-03-28T07:35:34.903Z,0.90
2023-03-28T07:38:08.578Z,0.80
2023-03-28T07:40:45.927Z,0.93
2023-03-28T07:43:16.964Z,0.90
2023-03-28T07:46:01.996Z,1.12
2023-03-28T07:48:36.038Z,1.00
2023-03-28T07:51:39.930Z,0.90
2023-03-28T07:57:49.327Z,1.23
2023-03-28T08:03:35.522Z,1.10
2023-03-28T08:09:05.951Z,1.30
2023-03-28T08:11:38.285Z,1.27
2023-03-28T08:14:12.776Z,1.32
2023-03-28T08:16:48.648Z,1.40
2023-03-28T08:19:22.829Z,1.30
2023-03-28T08:21:54.871Z,1.60
2023-03-28T08:27:55.426Z,1.50
2023-03-28T08:30:41.366Z,1.52
2023-03-28T08:33:15.064Z,1.47
2023-03-28T08:35:47.597Z,1.30
2023-03-28T08:38:20.160Z,1.50
2023-03-28T08:41:11.611Z,1.40
2023-03-28T08:44:21.207Z,1.67
2023-03-28T08:46:54.202Z,1.40
2023-03-28T08:49:25.336Z,1.35
2023-03-28T08:55:19.308Z,1.55
2023-03-28T08:58:35.387Z,1.52
2023-03-28T09:04:48.269Z,1.98
2023-03-28T09:07:47.183Z,1.55
2023-03-28T09:10:22.208Z,2.50
2023-03-28T09:16:53.324Z,1.33
2023-03-28T09:19:49.046Z,1.40
2023-03-28T09:22:57.824Z,1.40
2023-03-28T09:26:53.763Z,1.70
2023-03-28T09:28:40.467Z,1.80
2023-03-28T09:31:33.882Z,1.53
2023-03-28T09:34:33.060Z,1.60
2023-03-28T09:37:25.782Z,1.60
2023-03-28T09:40:03.820Z,1.60
2023-03-28T09:46:10.776Z,1.60
2023-03-28T09:49:03.137Z,1.77
2023-03-28T09:52:00.144Z,1.57
2023-03-28T09:55:10.319Z,1.72
2023-03-28T09:58:12.701Z,1.57
2023-03-28T10:04:07.585Z,1.80
2023-03-28T10:07:00.164Z,1.80
2023-03-28T10:09:46.723Z,1.65
2023-03-28T10:16:00.343Z,1.80
2023-03-28T10:22:34.197Z,1.60
2023-03-28T10:24:52.315Z,1.90
2023-03-28T10:34:17.670Z,1.67
2023-03-28T10:36:32.339Z,1.60
2023-03-28T10:38:56.453Z,1.70
2023-03-28T10:43:10.156Z,1.80
2023-03-28T10:44:37.620Z,1.60
2023-03-28T10:47:16.532Z,1.50
2023-03-28T10:50:01.364Z,1.65
2023-03-28T10:52:55.647Z,1.70
2023-03-28T10:55:50.003Z,1.50
2023-03-28T10:59:00.976Z,1.80
2023-03-28T11:02:03.526Z,1.52
2023-03-28T11:08:25.336Z,1.60
2023-03-28T11:11:27.773Z,1.80
2023-03-28T11:14:53.271Z,1.50
2023-03-28T11:17:33.859Z,1.70
2023-03-28T11:20:39.672Z,1.60
2023-03-28T11:23:16.663Z,1.40
2023-03-28T11:25:57.479Z,1.70
2023-03-28T11:29:05.513Z,1.40
2023-03-28T11:32:17.714Z,1.30
2023-03-28T11:35:14.573Z,1.20
2023-03-28T11:38:11.720Z,1.37
2023-03-28T11:41:19.177Z,1.10
2023-03-28T11:44:04.864Z,1.10
2023-03-28T11:47:14.308Z,1.27
2023-03-28T11:50:19.237Z,1.30
2023-03-28T11:53:12.603Z,1.60
2023-03-28T11:55:58.973Z,1.43
2023-03-28T11:58:44.932Z,1.33
2023-03-28T12:04:40.763Z,1.20
2023-03-28T12:07:54.695Z,0.90
2023-03-28T12:13:55.489Z,1.20
2023-03-28T12:16:31.311Z,1.10
2023-03-28T12:19:10.540Z,1.10
2023-03-28T12:21:45.962Z,1.65
2023-03-28T12:24:31.073Z,1.10
2023-03-28T12:56:08.838Z,1.77
2023-03-28T12:59:09.395Z,1.70
2023-03-28T13:05:08.364Z,1.80
2023-03-28T13:08:34.421Z,1.70
2023-03-28T13:11:11.668Z,1.57
2023-03-28T13:14:10.463Z,1.80
2023-03-28T13:17:02.368Z,1.80
2023-03-28T13:20:11.694Z,1.80
2023-03-28T13:23:03.884Z,1.77
2023-03-28T13:26:06.609Z,1.50
2023-03-28T13:29:15.765Z,1.92
2023-03-28T13:35:12.549Z,1.47
2023-03-28T13:38:11.259Z,2.02
2023-03-28T13:41:15.812Z,1.77
2023-03-28T13:44:19.831Z,1.70
2023-03-28T14:00:25.770Z,1.87
2023-03-28T14:02:58.232Z,1.70
2023-03-28T14:05:30.519Z,1.70
2023-03-28T14:08:22.543Z,1.87
2023-03-28T14:11:28.830Z,2.05
2023-03-28T14:14:30.744Z,1.87
2023-03-28T14:20:24.197Z,1.85
2023-03-28T14:23:32.490Z,1.40
2023-03-28T14:26:07.196Z,1.80
2023-03-28T14:29:04.325Z,1.92
2023-03-28T14:35:48.197Z,1.90
2023-03-28T14:38:19.749Z,1.90
2023-03-28T14:44:14.923Z,1.72
2023-03-28T14:47:35.622Z,1.77
2023-03-28T14:50:22.187Z,1.70
2023-03-28T14:53:25.508Z,1.80
2023-03-28T14:56:18.072Z,1.87
2023-03-28T14:58:56.064Z,1.80
2023-03-28T15:02:01.265Z,1.60
2023-03-28T15:05:37.145Z,1.80
2023-03-28T15:08:31.678Z,1.72
2023-03-28T15:11:28.782Z,1.70
2023-03-28T15:17:34.735Z,1.77
2023-03-28T15:22:49.256Z,1.82
2023-03-28T15:28:17.578Z,1.95
2023-03-28T15:30:48.635Z,1.93
2023-03-28T15:33:23.420Z,1.70
2023-03-28T15:35:53.439Z,1.65
2023-03-28T15:38:39.892Z,1.60
2023-03-28T15:41:28.869Z,1.50
2023-03-28T15:47:29.317Z,1.80
2023-03-28T15:50:23.478Z,1.80
2023-03-28T15:53:08.024Z,1.77
2023-03-28T15:56:13.931Z,1.80
2023-03-28T15:59:11.661Z,2.25
2023-03-28T16:02:22.820Z,2.00
2023-03-28T16:05:37.850Z,1.80
2023-03-28T16:11:21.333Z,5.30
2023-03-28T16:14:42.234Z,2.00
2023-03-28T16:17:27.304Z,2.10
2023-03-28T16:20:27.384Z,2.08
2023-03-28T16:23:41.810Z,4.03
2023-03-28T16:26:15.637Z,1.63
2023-03-28T16:29:10.666Z,3.83
2023-03-28T16:32:29.053Z,2.33
2023-03-28T16:35:29.316Z,2.12
2023-03-28T16:44:32.545Z,2.05
2023-03-28T16:47:04.786Z,2.07
2023-03-28T16:53:53.901Z,1.98
2023-03-28T16:55:13.408Z,2.52
2023-03-28T16:57:44.444Z,1.82
2023-03-28T17:00:18.216Z,2.02
2023-03-28T17:02:52.927Z,2.02
2023-03-28T17:05:44.831Z,1.47
2023-03-28T17:08:51.508Z,1.85
2023-03-28T17:11:58.474Z,1.60
2023-03-28T17:14:52.092Z,1.45
2023-03-28T17:17:42.117Z,1.65
2023-03-28T17:23:35.527Z,1.47
2023-03-28T17:27:05.689Z,2.42
2023-03-28T17:29:56.396Z,1.70
2023-03-28T17:32:46.204Z,1.67
2023-03-28T17:35:43.636Z,3.27
2023-03-28T17:38:39.965Z,2.40
2023-03-28T17:45:01.756Z,1.70
2023-03-28T17:50:43.237Z,1.47
2023-03-28T17:50:45.758Z,1.50
2023-03-28T17:54:00.263Z,1.72
2023-03-28T17:56:39.006Z,1.80
2023-03-28T18:02:31.280Z,2.33
2023-03-28T18:11:43.044Z,1.72
2023-03-28T18:23:48.429Z,1.87
2023-03-28T18:26:31.674Z,1.30
2023-03-28T18:29:58.097Z,1.40
2023-03-28T18:35:39.704Z,1.50
2023-03-28T18:38:44.769Z,1.70
2023-03-28T18:41:50.571Z,1.52
2023-03-28T18:44:30.203Z,1.57
2023-03-28T18:50:43.567Z,1.40
2023-03-28T18:53:46.616Z,1.25
2023-03-28T18:56:45.298Z,1.47
2023-03-28T19:02:23.617Z,1.40
2023-03-28T19:07:34.748Z,1.77
2023-03-28T19:10:07.698Z,2.15
2023-03-28T19:12:38.199Z,1.50
2023-03-28T19:17:59.396Z,1.32
2023-03-28T19:21:08.028Z,1.20
2023-03-28T19:23:55.987Z,2.52
2023-03-28T20:02:33.995Z,1.60
2023-03-28T20:05:17.622Z,1.53
2023-03-28T20:07:43.788Z,1.40
2023-03-28T20:10:17.568Z,1.30
2023-03-28T20:12:55.559Z,1.07
2023-03-28T20:15:25.607Z,1.15
2023-03-28T20:18:06.459Z,1.20
2023-03-28T20:21:02.282Z,1.17
2023-03-28T20:24:08.815Z,1.30
2023-03-28T20:27:18.411Z,1.32
2023-03-28T20:30:01.199Z,1.77
2023-03-28T20:33:03.363Z,1.65
2023-03-28T20:36:33.750Z,2.37
2023-03-28T20:39:04.980Z,1.00
2023-03-28T20:44:43.568Z,0.95
2023-03-28T20:47:40.131Z,1.80
2023-03-28T20:53:45.659Z,1.23
2023-03-28T20:59:49.670Z,1.27
2023-03-28T21:03:00.826Z,1.10
2023-03-28T21:05:51.561Z,1.20
2023-03-28T21:15:17.722Z,1.37
2023-03-28T21:18:05.354Z,0.90
2023-03-28T21:27:35.259Z,0.90
2023-03-28T21:30:15.512Z,0.97
2023-03-28T21:32:55.060Z,1.30
2023-03-28T21:35:41.169Z,1.32
2023-03-28T21:38:11.454Z,1.00
2023-03-28T21:40:41.733Z,0.70
2023-03-28T21:43:12.450Z,0.70
2023-03-28T21:45:44.260Z,0.80
2023-03-28T21:48:25.706Z,0.90
2023-03-28T21:51:01.542Z,0.80
2023-03-28T21:53:44.747Z,0.85
2023-03-28T21:56:15.373Z,0.85
2023-03-28T21:58:50.259Z,0.88
2023-03-28T22:01:20.711Z,1.10
2023-03-28T22:03:50.846Z,0.90
2023-03-28T22:06:21.708Z,1.10
2023-03-28T22:09:00.129Z,0.82
2023-03-28T22:12:09.360Z,1.00
2023-03-28T22:14:55.305Z,1.23
2023-03-28T22:20:52.630Z,0.80
2023-03-28T22:26:16.572Z,0.85
2023-03-28T22:28:47.205Z,0.90
2023-03-28T22:31:17.867Z,1.20
2023-03-28T22:33:48.371Z,0.70
2023-03-28T22:36:22.116Z,0.93
2023-03-28T22:39:15.877Z,0.70
2023-03-28T22:42:20.628Z,1.00
2023-03-28T22:45:30.134Z,0.90
2023-03-28T22:52:00.482Z,0.80
2023-03-28T22:54:47.762Z,1.47
2023-03-28T22:57:30.295Z,1.27
2023-03-28T23:09:15.416Z,1.00
2023-03-28T23:12:15.625Z,2.40
2023-03-28T23:15:35.964Z,0.87
2023-03-28T23:17:27.842Z,0.70
2023-03-28T23:20:00.976Z,0.70
2023-03-28T23:22:32.039Z,0.70
2023-03-28T23:25:04.041Z,0.98
2023-03-28T23:27:34.700Z,0.85
2023-03-28T23:30:26.878Z,0.77
2023-03-28T23:33:07.099Z,0.80
2023-03-28T23:36:13.465Z,2.30
2023-03-28T23:38:59.547Z,0.90
2023-03-28T23:41:33.730Z,1.50
2023-03-28T23:44:11.608Z,1.07
2023-03-28T23:46:49.072Z,1.67
2023-03-28T23:49:25.988Z,0.87
2023-03-28T23:51:57.356Z,0.90
2023-03-28T23:54:35.480Z,1.35
